SASJ/JUJ METAR and TAF weather

Enter ICAO airport designator
Station Type Date Time Source
SASJ METAR 2019/06/20 07:00 UTC NOAA

SASJ 200700Z 29005KT CAVOK 04/02 Q1023


Station Type Date Time Source
SASJ Decoded METAR 2019/06/20 07:00 UTC NOAA

Jujuy Aerodrome, Argentina (SASJ) 24-23S 065-05W 905M
Jun 20, 2019 - 03:00 AM EDT / 2019.06.20 0700 UTC
Wind: from the WNW (290 degrees) at 6 MPH (5 KT):0
Visibility: greater than 7 mile(s):0
Temperature: 39 F (4 C)
Dew Point: 35 F (2 C)
Relative Humidity: 86%
Pressure (altimeter): 30.21 in. Hg (1023 hPa)
ob: SASJ 200700Z 29005KT CAVOK 04/02 Q1023
cycle: 7

Station Type Date Time Source
SASJ TAF 2019/06/20 06:18 UTC NOAA

TAF SASJ 200500Z 2006/2106 29005KT CAVOK TX21/2018Z TN03/2011Z
BECMG 2014/2017 09010G20KT

Example: see airport list